createdAt,value
2023-02-03T00:00:09.351Z,8.63
2023-02-03T00:02:40.868Z,7.47
2023-02-03T00:05:10.183Z,11.13
2023-02-03T00:07:39.821Z,11.30
2023-02-03T00:10:08.785Z,10.45
2023-02-03T00:12:37.173Z,9.98
2023-02-03T00:15:05.783Z,13.27
2023-02-03T00:17:34.255Z,13.15
2023-02-03T00:20:02.850Z,13.65
2023-02-03T00:22:31.439Z,10.70
2023-02-03T00:25:00.804Z,10.38
2023-02-03T00:27:28.917Z,13.00
2023-02-03T00:29:57.663Z,10.80
2023-02-03T00:32:26.563Z,12.80
2023-02-03T00:34:54.763Z,10.63
2023-02-03T00:37:23.776Z,13.65
2023-02-03T00:39:52.105Z,16.55
2023-02-03T00:42:20.854Z,11.18
2023-02-03T00:44:49.172Z,13.10
2023-02-03T00:47:17.300Z,10.40
2023-02-03T00:49:45.453Z,13.02
2023-02-03T00:52:13.975Z,12.07
2023-02-03T00:54:42.015Z,12.70
2023-02-03T00:57:10.574Z,10.18
2023-02-03T00:59:40.492Z,11.02
2023-02-03T01:02:08.801Z,12.10
2023-02-03T01:04:37.016Z,11.35
2023-02-03T01:07:05.379Z,10.85
2023-02-03T01:09:38.100Z,12.32
2023-02-03T01:12:07.142Z,13.55
2023-02-03T01:14:35.542Z,11.52
2023-02-03T01:17:05.545Z,11.27
2023-02-03T01:19:33.950Z,10.73
2023-02-03T01:22:02.137Z,9.75
2023-02-03T01:24:31.496Z,9.93
2023-02-03T01:26:59.735Z,11.43
2023-02-03T01:29:29.599Z,11.07
2023-02-03T01:31:58.381Z,8.30
2023-02-03T01:34:26.794Z,12.68
2023-02-03T01:36:55.065Z,9.82
2023-02-03T01:39:23.268Z,12.05
2023-02-03T01:41:51.477Z,9.57
2023-02-03T01:44:43.363Z,13.38
2023-02-03T01:47:29.228Z,11.52
2023-02-03T01:50:02.985Z,10.27
2023-02-03T01:52:32.944Z,9.05
2023-02-03T01:55:05.723Z,10.20
2023-02-03T01:57:50.954Z,11.48
2023-02-03T02:00:19.690Z,14.40
2023-02-03T02:02:49.364Z,10.70
2023-02-03T02:05:34.324Z,9.07
2023-02-03T02:08:04.325Z,11.55
2023-02-03T02:10:34.075Z,12.15
2023-02-03T02:13:04.723Z,9.80
2023-02-03T02:15:51.737Z,11.15
2023-02-03T02:18:41.304Z,10.07
2023-02-03T02:21:20.267Z,9.30
2023-02-03T02:24:11.359Z,11.60
2023-02-03T02:27:12.279Z,9.48
2023-02-03T02:30:01.632Z,7.45
2023-02-03T02:33:00.418Z,7.57
2023-02-03T02:35:30.210Z,9.77
2023-02-03T02:38:44.414Z,9.50
2023-02-03T02:41:31.220Z,9.88
2023-02-03T02:44:08.293Z,15.60
2023-02-03T02:49:25.613Z,12.70
2023-02-03T02:51:55.810Z,9.10
2023-02-03T02:54:28.534Z,9.52
2023-02-03T02:57:02.697Z,8.65
2023-02-03T02:59:32.703Z,8.27
2023-02-03T03:02:01.295Z,12.70
2023-02-03T03:04:33.286Z,8.80
2023-02-03T03:07:08.977Z,8.55
2023-02-03T03:09:43.334Z,8.73
2023-02-03T03:12:25.754Z,8.30
2023-02-03T03:15:04.728Z,6.82
2023-02-03T03:17:44.977Z,11.18
2023-02-03T03:20:26.022Z,13.50
2023-02-03T03:23:06.846Z,7.65
2023-02-03T03:25:44.181Z,9.45
2023-02-03T03:28:21.194Z,8.48
2023-02-03T03:30:50.084Z,8.20
2023-02-03T03:33:18.758Z,9.25
2023-02-03T03:35:51.117Z,13.23
2023-02-03T03:38:33.812Z,9.93
2023-02-03T03:41:28.358Z,10.52
2023-02-03T03:44:02.934Z,10.23
2023-02-03T03:46:40.382Z,9.63
2023-02-03T03:49:11.773Z,9.77
2023-02-03T03:51:58.018Z,9.57
2023-02-03T03:54:28.610Z,11.25
2023-02-03T03:57:07.225Z,7.60
2023-02-03T03:59:40.293Z,7.35
2023-02-03T04:02:08.648Z,11.88
2023-02-03T04:04:40.495Z,9.55
2023-02-03T04:07:08.679Z,7.50
2023-02-03T04:09:37.396Z,8.38
2023-02-03T04:12:06.637Z,7.95
2023-02-03T04:14:39.179Z,11.52
2023-02-03T04:17:07.673Z,11.00
2023-02-03T04:19:36.155Z,8.18
2023-02-03T04:22:04.373Z,12.43
2023-02-03T04:24:33.101Z,8.70
2023-02-03T04:27:02.725Z,7.80
2023-02-03T04:29:33.271Z,11.82
2023-02-03T04:32:01.555Z,10.07
2023-02-03T04:34:30.313Z,8.57
2023-02-03T04:36:58.576Z,9.13
2023-02-03T04:39:26.937Z,10.65
2023-02-03T04:41:55.136Z,8.85
2023-02-03T04:44:23.297Z,10.43
2023-02-03T04:46:51.659Z,10.80
2023-02-03T04:49:20.253Z,8.75
2023-02-03T04:51:51.664Z,8.57
2023-02-03T04:54:19.782Z,12.15
2023-02-03T04:56:48.139Z,7.03
2023-02-03T04:59:16.859Z,6.72
2023-02-03T05:01:45.016Z,9.85
2023-02-03T05:04:13.582Z,8.93
2023-02-03T05:06:42.283Z,6.15
2023-02-03T05:09:11.059Z,7.53
2023-02-03T05:11:39.721Z,8.18
2023-02-03T05:14:08.456Z,6.82
2023-02-03T05:16:37.077Z,7.10
2023-02-03T05:19:05.373Z,10.15
2023-02-03T05:21:33.536Z,8.50
2023-02-03T05:24:04.013Z,8.68
2023-02-03T05:26:32.654Z,7.28
2023-02-03T05:29:01.381Z,8.82
2023-02-03T05:31:29.809Z,7.90
2023-02-03T05:33:58.171Z,5.70
2023-02-03T05:36:26.430Z,7.53
2023-02-03T05:38:54.861Z,9.48
2023-02-03T05:41:41.653Z,8.38
2023-02-03T05:44:10.310Z,6.97
2023-02-03T05:46:38.431Z,9.25
2023-02-03T05:49:06.783Z,8.95
2023-02-03T05:51:35.171Z,6.40
2023-02-03T05:54:03.569Z,8.50
2023-02-03T05:56:32.276Z,7.18
2023-02-03T05:59:00.509Z,9.10
2023-02-03T06:01:29.278Z,8.60
2023-02-03T06:03:58.196Z,6.88
2023-02-03T06:06:33.766Z,7.78
2023-02-03T06:09:06.386Z,6.93
2023-02-03T06:11:36.757Z,8.77
2023-02-03T06:14:05.562Z,8.00
2023-02-03T06:16:33.831Z,9.20
2023-02-03T06:19:02.399Z,10.20
2023-02-03T06:21:30.774Z,7.40
2023-02-03T06:23:59.615Z,9.02
2023-02-03T06:26:27.810Z,9.45
2023-02-03T06:28:56.223Z,9.30
2023-02-03T06:31:24.528Z,9.00
2023-02-03T06:33:52.763Z,11.80
2023-02-03T06:36:20.919Z,10.48
2023-02-03T06:38:49.603Z,9.82
2023-02-03T06:41:18.172Z,10.82
2023-02-03T06:43:46.686Z,11.75
2023-02-03T06:46:15.127Z,11.85
2023-02-03T06:48:43.721Z,10.30
2023-02-03T06:51:12.428Z,11.20
2023-02-03T06:53:43.642Z,11.23
2023-02-03T06:56:12.289Z,9.40
2023-02-03T06:58:40.722Z,10.73
2023-02-03T07:01:09.184Z,10.45
2023-02-03T07:03:37.796Z,9.65
2023-02-03T07:06:06.454Z,9.30
2023-02-03T07:08:34.723Z,10.57
2023-02-03T07:11:03.010Z,11.70
2023-02-03T07:13:31.399Z,14.23
2023-02-03T07:15:59.593Z,11.57
2023-02-03T07:18:46.222Z,14.25
2023-02-03T07:21:16.597Z,17.00
2023-02-03T07:23:48.388Z,15.95
2023-02-03T07:26:18.106Z,19.77
2023-02-03T07:28:46.550Z,33.92
2023-02-03T07:31:15.113Z,52.83
2023-02-03T07:33:43.903Z,48.53
2023-02-03T07:36:12.692Z,61.13
2023-02-03T07:38:41.223Z,54.10
2023-02-03T07:41:09.952Z,55.88
2023-02-03T07:43:38.585Z,53.60
2023-02-03T07:46:07.367Z,63.53
2023-02-03T07:48:35.728Z,73.07
2023-02-03T07:51:04.321Z,68.10
2023-02-03T07:53:32.991Z,62.42
2023-02-03T07:56:03.544Z,66.82
2023-02-03T07:58:33.362Z,62.17
2023-02-03T08:01:01.900Z,78.55
2023-02-03T08:03:30.546Z,93.40
2023-02-03T08:06:00.699Z,118.97
2023-02-03T08:08:29.183Z,101.72
2023-02-03T08:10:57.541Z,117.97
2023-02-03T08:13:25.681Z,138.05
2023-02-03T08:15:54.166Z,146.10
2023-02-03T08:18:23.345Z,154.02
2023-02-03T08:20:51.747Z,149.20
2023-02-03T08:23:20.380Z,150.82
2023-02-03T08:25:55.037Z,149.45
2023-02-03T08:28:23.674Z,140.73
2023-02-03T08:30:52.649Z,153.52
2023-02-03T08:33:21.284Z,148.57
2023-02-03T08:35:51.239Z,147.20
2023-02-03T08:38:19.660Z,162.00
2023-02-03T08:40:48.145Z,162.60
2023-02-03T08:43:16.598Z,163.13
2023-02-03T08:45:45.184Z,162.20
2023-02-03T08:48:13.487Z,163.98
2023-02-03T08:50:44.740Z,168.23
2023-02-03T08:53:13.544Z,163.68
2023-02-03T08:55:42.029Z,157.93
2023-02-03T08:58:10.999Z,148.80
2023-02-03T09:00:39.722Z,153.57
2023-02-03T09:03:08.140Z,153.40
2023-02-03T09:05:37.015Z,148.10
2023-02-03T09:08:05.455Z,144.15
2023-02-03T09:10:34.154Z,147.60
2023-02-03T09:13:02.619Z,143.30
2023-02-03T09:15:30.982Z,140.55
2023-02-03T09:17:59.298Z,144.38
2023-02-03T09:20:28.408Z,144.52
2023-02-03T09:23:03.173Z,127.55
2023-02-03T09:25:45.784Z,135.82
2023-02-03T09:28:15.121Z,126.68
2023-02-03T09:30:43.870Z,123.15
2023-02-03T09:33:12.131Z,119.30
2023-02-03T09:35:41.324Z,111.65
2023-02-03T09:38:09.878Z,123.22
2023-02-03T09:40:40.072Z,125.45
2023-02-03T09:43:33.473Z,135.90
2023-02-03T09:46:16.554Z,141.70
2023-02-03T09:48:50.264Z,138.77
2023-02-03T09:51:32.893Z,149.63
2023-02-03T09:54:34.278Z,140.90
2023-02-03T09:57:05.577Z,155.18
2023-02-03T09:59:35.779Z,144.57
2023-02-03T10:02:34.716Z,141.90
2023-02-03T10:05:11.833Z,145.25
2023-02-03T17:00:33.668Z,79.90
2023-02-03T17:03:05.255Z,82.50
2023-02-03T17:05:41.256Z,80.07
2023-02-03T17:08:10.018Z,84.15
2023-02-03T17:10:40.011Z,85.88
2023-02-03T17:13:09.107Z,78.00
2023-02-03T17:15:45.794Z,83.30
2023-02-03T17:18:18.428Z,72.47
2023-02-03T17:20:47.221Z,79.32
2023-02-03T17:23:19.252Z,74.90
2023-02-03T17:25:50.059Z,78.47
2023-02-03T17:28:18.930Z,81.95
2023-02-03T17:30:57.382Z,73.00
2023-02-03T17:33:27.001Z,77.22
2023-02-03T17:36:11.119Z,73.65
2023-02-03T17:55:34.074Z,71.80
2023-02-03T17:58:02.591Z,73.10
2023-02-03T18:00:31.531Z,74.85
2023-02-03T18:03:00.096Z,81.65
2023-02-03T18:05:29.264Z,77.47
2023-02-03T18:08:00.784Z,71.53
2023-02-03T18:10:34.701Z,72.80
2023-02-03T18:13:03.421Z,72.10
2023-02-03T18:15:33.735Z,68.70
2023-02-03T18:18:01.917Z,64.47
2023-02-03T18:20:30.343Z,66.13
2023-02-03T18:22:59.140Z,67.22
2023-02-03T18:25:27.888Z,65.07
2023-02-03T18:27:56.525Z,68.32
2023-02-03T18:30:24.942Z,72.88
2023-02-03T18:32:53.428Z,68.63
2023-02-03T18:35:21.910Z,74.93
2023-02-03T18:37:52.025Z,69.93
2023-02-03T18:40:20.610Z,75.88
2023-02-03T18:42:49.366Z,77.00
2023-02-03T18:45:17.611Z,77.68
2023-02-03T18:47:46.526Z,80.45
2023-02-03T18:50:15.255Z,81.68
2023-02-03T18:52:43.619Z,77.65
2023-02-03T18:55:13.555Z,76.30
2023-02-03T18:57:42.164Z,79.13
2023-02-03T19:00:11.189Z,78.70
2023-02-03T19:02:40.044Z,84.13
2023-02-03T19:05:12.132Z,80.15
2023-02-03T19:07:41.102Z,75.22
2023-02-03T19:10:10.141Z,78.57
2023-02-03T19:12:38.829Z,81.40
2023-02-03T19:15:09.213Z,79.13
2023-02-03T19:17:39.111Z,80.57
2023-02-03T19:20:07.890Z,81.97
2023-02-03T19:22:36.095Z,79.47
2023-02-03T19:25:04.870Z,81.45
2023-02-03T19:27:33.531Z,73.30
2023-02-03T19:30:01.825Z,80.90
2023-02-03T19:32:31.343Z,82.85
2023-02-03T19:35:00.891Z,79.95
2023-02-03T19:37:29.455Z,71.13
2023-02-03T19:39:57.701Z,78.05
2023-02-03T19:42:25.969Z,78.97
2023-02-03T19:44:54.257Z,80.50
2023-02-03T19:47:22.690Z,85.25
2023-02-03T19:49:51.172Z,84.90
2023-02-03T19:52:19.300Z,80.47
2023-02-03T19:54:47.707Z,86.40
2023-02-03T19:57:16.034Z,84.95
2023-02-03T19:59:44.044Z,83.95
2023-02-03T20:02:15.000Z,73.05
2023-02-03T20:04:44.446Z,70.80
2023-02-03T20:07:14.068Z,71.20
2023-02-03T20:09:42.343Z,72.47
2023-02-03T20:12:10.996Z,71.18
2023-02-03T20:14:39.361Z,71.72
2023-02-03T20:17:08.168Z,70.30
2023-02-03T20:19:36.638Z,81.05
2023-02-03T20:22:04.952Z,70.80
2023-02-03T20:24:34.088Z,69.25
2023-02-03T20:27:02.534Z,71.88
2023-02-03T20:29:30.868Z,69.13
2023-02-03T20:31:58.989Z,72.55
2023-02-03T20:34:30.496Z,71.03
2023-02-03T20:37:01.101Z,73.38
2023-02-03T20:39:30.010Z,73.00
2023-02-03T20:41:58.713Z,70.05
2023-02-03T20:44:27.900Z,65.32
2023-02-03T20:46:56.381Z,56.55
2023-02-03T20:49:25.162Z,55.38
2023-02-03T20:51:53.690Z,61.22
2023-02-03T20:54:23.533Z,60.25
2023-02-03T20:56:52.070Z,62.70
2023-02-03T20:59:20.395Z,63.67
2023-02-03T21:01:49.549Z,65.80
2023-02-03T21:04:37.923Z,63.38
2023-02-03T21:07:18.881Z,71.18
2023-02-03T21:09:47.668Z,76.72
2023-02-03T21:12:17.527Z,80.68
2023-02-03T21:14:53.799Z,80.82
2023-02-03T21:17:26.548Z,79.70
2023-02-03T21:19:55.690Z,83.05
2023-02-03T21:22:26.850Z,74.53
2023-02-03T21:24:58.447Z,70.78
2023-02-03T21:27:34.339Z,71.28
2023-02-03T21:30:29.012Z,67.80
2023-02-03T21:32:59.012Z,71.82
2023-02-03T21:35:30.764Z,70.20
2023-02-03T21:38:28.634Z,61.50
2023-02-03T21:40:57.971Z,60.83
2023-02-03T21:43:26.384Z,60.05
2023-02-03T21:45:58.218Z,53.25
2023-02-03T21:48:33.277Z,59.80
2023-02-03T21:51:04.326Z,55.50
2023-02-03T21:53:36.088Z,55.75
2023-02-03T21:56:29.230Z,52.72
2023-02-03T21:58:59.552Z,55.55
2023-02-03T22:01:34.990Z,48.45
2023-02-03T22:04:04.828Z,48.20
2023-02-03T22:06:45.354Z,50.33
2023-02-03T22:09:21.512Z,52.72
2023-02-03T22:11:50.366Z,52.00
2023-02-03T22:14:20.977Z,55.15
2023-02-03T22:16:49.260Z,56.75
2023-02-03T22:19:18.148Z,48.60
2023-02-03T22:21:48.326Z,53.85
2023-02-03T22:24:16.596Z,50.75
2023-02-03T22:26:44.748Z,49.15
2023-02-03T22:29:12.945Z,51.75
2023-02-03T22:31:43.037Z,44.05
2023-02-03T22:34:11.245Z,52.08
2023-02-03T22:36:40.029Z,45.17
2023-02-03T22:39:08.233Z,48.00
2023-02-03T22:41:36.647Z,45.45
2023-02-03T22:44:05.347Z,45.60
2023-02-03T22:46:34.715Z,44.65
2023-02-03T22:49:02.967Z,49.30
2023-02-03T22:51:31.286Z,44.15
2023-02-03T22:54:00.167Z,45.42
2023-02-03T22:56:28.776Z,48.67
2023-02-03T22:58:57.072Z,40.95
2023-02-03T23:01:25.849Z,43.35
2023-02-03T23:03:54.106Z,45.03
2023-02-03T23:06:21.961Z,42.85
2023-02-03T23:08:50.455Z,43.65
2023-02-03T23:11:20.148Z,39.83
2023-02-03T23:13:49.846Z,40.20
2023-02-03T23:16:18.150Z,38.40
2023-02-03T23:18:47.049Z,39.65
2023-02-03T23:21:15.021Z,31.20
2023-02-03T23:23:43.160Z,32.10
2023-02-03T23:26:14.892Z,31.48
2023-02-03T23:28:43.109Z,29.20
2023-02-03T23:31:11.728Z,30.38
2023-02-03T23:33:40.191Z,25.45
2023-02-03T23:36:09.013Z,22.20
2023-02-03T23:38:37.155Z,18.48
2023-02-03T23:41:05.513Z,20.60
2023-02-03T23:43:33.880Z,21.35
2023-02-03T23:46:02.488Z,23.40
2023-02-03T23:48:30.947Z,19.75
2023-02-03T23:50:59.682Z,17.70
2023-02-03T23:53:28.351Z,21.25
2023-02-03T23:55:57.226Z,17.67
2023-02-03T23:58:26.109Z,18.70
